sensor_id;sensor_type;location;lat;lon;timestamp;temperature;humidity
20376;DHT22;10347;51.828;6.466;2023-03-01T00:00:05;3.90;99.90
20376;DHT22;10347;51.828;6.466;2023-03-01T00:02:32;3.90;99.90
20376;DHT22;10347;51.828;6.466;2023-03-01T00:04:57;3.90;99.90
20376;DHT22;10347;51.828;6.466;2023-03-01T00:07:23;3.90;99.90
20376;DHT22;10347;51.828;6.466;2023-03-01T00:09:48;3.90;99.90
20376;DHT22;10347;51.828;6.466;2023-03-01T00:12:14;4.00;99.90
20376;DHT22;10347;51.828;6.466;2023-03-01T00:14:40;4.00;99.90
20376;DHT22;10347;51.828;6.466;2023-03-01T00:17:05;3.90;99.90
20376;DHT22;10347;51.828;6.466;2023-03-01T00:19:31;3.90;99.90
20376;DHT22;10347;51.828;6.466;2023-03-01T00:21:57;3.90;99.90
20376;DHT22;10347;51.828;6.466;2023-03-01T00:24:23;3.90;99.90
20376;DHT22;10347;51.828;6.466;2023-03-01T00:26:48;3.90;99.90
20376;DHT22;10347;51.828;6.466;2023-03-01T00:29:17;3.90;99.90
20376;DHT22;10347;51.828;6.466;2023-03-01T00:31:43;3.90;99.90
20376;DHT22;10347;51.828;6.466;2023-03-01T00:34:09;3.80;99.90
20376;DHT22;10347;51.828;6.466;2023-03-01T00:36:36;3.80;99.90
20376;DHT22;10347;51.828;6.466;2023-03-01T00:39:04;3.80;99.90
20376;DHT22;10347;51.828;6.466;2023-03-01T00:41:30;3.70;99.90
20376;DHT22;10347;51.828;6.466;2023-03-01T00:43:55;3.70;99.90
20376;DHT22;10347;51.828;6.466;2023-03-01T00:46:23;3.70;99.90
20376;DHT22;10347;51.828;6.466;2023-03-01T00:48:49;3.70;99.90
20376;DHT22;10347;51.828;6.466;2023-03-01T00:51:20;3.70;99.90
20376;DHT22;10347;51.828;6.466;2023-03-01T00:53:47;3.60;99.90
20376;DHT22;10347;51.828;6.466;2023-03-01T00:56:14;3.60;99.90
20376;DHT22;10347;51.828;6.466;2023-03-01T00:58:40;3.60;99.90
20376;DHT22;10347;51.828;6.466;2023-03-01T01:01:14;3.60;99.90
20376;DHT22;10347;51.828;6.466;2023-03-01T01:03:48;3.50;99.90
20376;DHT22;10347;51.828;6.466;2023-03-01T01:06:35;3.50;99.90
20376;DHT22;10347;51.828;6.466;2023-03-01T01:09:02;3.60;99.90
20376;DHT22;10347;51.828;6.466;2023-03-01T01:11:29;3.50;99.90
20376;DHT22;10347;51.828;6.466;2023-03-01T01:13:55;3.50;99.90
20376;DHT22;10347;51.828;6.466;2023-03-01T01:16:22;3.50;99.90
20376;DHT22;10347;51.828;6.466;2023-03-01T01:18:49;3.50;99.90
20376;DHT22;10347;51.828;6.466;2023-03-01T01:21:18;3.50;99.90
20376;DHT22;10347;51.828;6.466;2023-03-01T01:23:44;3.50;99.90
20376;DHT22;10347;51.828;6.466;2023-03-01T01:26:17;3.40;99.90
20376;DHT22;10347;51.828;6.466;2023-03-01T01:28:44;3.40;99.90
20376;DHT22;10347;51.828;6.466;2023-03-01T01:31:12;3.40;99.90
20376;DHT22;10347;51.828;6.466;2023-03-01T01:33:38;3.40;99.90
20376;DHT22;10347;51.828;6.466;2023-03-01T01:36:05;3.40;99.90
20376;DHT22;10347;51.828;6.466;2023-03-01T01:38:30;3.30;99.90
20376;DHT22;10347;51.828;6.466;2023-03-01T01:40:56;3.30;99.90
20376;DHT22;10347;51.828;6.466;2023-03-01T01:43:28;3.30;99.90
20376;DHT22;10347;51.828;6.466;2023-03-01T01:45:58;3.30;99.90
20376;DHT22;10347;51.828;6.466;2023-03-01T01:48:32;3.30;99.90
20376;DHT22;10347;51.828;6.466;2023-03-01T01:51:09;3.20;99.90
20376;DHT22;10347;51.828;6.466;2023-03-01T01:53:36;3.20;99.90
20376;DHT22;10347;51.828;6.466;2023-03-01T01:56:03;3.20;99.90
20376;DHT22;10347;51.828;6.466;2023-03-01T01:58:31;3.20;99.90
20376;DHT22;10347;51.828;6.466;2023-03-01T02:00:56;3.10;99.90
20376;DHT22;10347;51.828;6.466;2023-03-01T02:03:25;3.10;99.90
20376;DHT22;10347;51.828;6.466;2023-03-01T02:06:20;3.10;99.90
20376;DHT22;10347;51.828;6.466;2023-03-01T02:08:44;3.10;99.90
20376;DHT22;10347;51.828;6.466;2023-03-01T02:11:11;3.00;99.90
20376;DHT22;10347;51.828;6.466;2023-03-01T02:13:40;3.00;99.90
20376;DHT22;10347;51.828;6.466;2023-03-01T02:16:10;3.00;99.90
20376;DHT22;10347;51.828;6.466;2023-03-01T02:18:37;3.00;99.90
20376;DHT22;10347;51.828;6.466;2023-03-01T02:23:43;3.00;99.90
20376;DHT22;10347;51.828;6.466;2023-03-01T02:26:25;3.00;99.90
20376;DHT22;10347;51.828;6.466;2023-03-01T02:28:54;2.90;99.90
20376;DHT22;10347;51.828;6.466;2023-03-01T02:31:20;2.90;99.90
20376;DHT22;10347;51.828;6.466;2023-03-01T02:34:07;2.90;99.90
20376;DHT22;10347;51.828;6.466;2023-03-01T02:36:58;2.90;99.90
20376;DHT22;10347;51.828;6.466;2023-03-01T02:39:37;2.90;99.90
20376;DHT22;10347;51.828;6.466;2023-03-01T02:42:13;2.90;99.90
20376;DHT22;10347;51.828;6.466;2023-03-01T02:44:39;2.80;99.90
20376;DHT22;10347;51.828;6.466;2023-03-01T02:47:05;2.80;99.90
20376;DHT22;10347;51.828;6.466;2023-03-01T02:49:33;2.80;99.90
20376;DHT22;10347;51.828;6.466;2023-03-01T02:55:08;2.70;99.90
20376;DHT22;10347;51.828;6.466;2023-03-01T02:57:38;2.70;99.90
20376;DHT22;10347;51.828;6.466;2023-03-01T03:00:07;2.70;99.90
20376;DHT22;10347;51.828;6.466;2023-03-01T03:02:34;2.70;99.90
20376;DHT22;10347;51.828;6.466;2023-03-01T03:05:09;2.70;99.90
20376;DHT22;10347;51.828;6.466;2023-03-01T03:07:37;2.70;99.90
20376;DHT22;10347;51.828;6.466;2023-03-01T03:10:05;2.70;99.90
20376;DHT22;10347;51.828;6.466;2023-03-01T03:12:31;2.70;99.90
20376;DHT22;10347;51.828;6.466;2023-03-01T03:14:56;2.70;99.90
20376;DHT22;10347;51.828;6.466;2023-03-01T03:17:22;2.60;99.90
20376;DHT22;10347;51.828;6.466;2023-03-01T03:19:47;2.60;99.90
20376;DHT22;10347;51.828;6.466;2023-03-01T03:22:13;2.60;99.90
20376;DHT22;10347;51.828;6.466;2023-03-01T03:24:39;2.60;99.90
20376;DHT22;10347;51.828;6.466;2023-03-01T03:27:05;2.60;99.90
20376;DHT22;10347;51.828;6.466;2023-03-01T03:29:31;2.70;99.90
20376;DHT22;10347;51.828;6.466;2023-03-01T03:31:57;2.70;99.90
20376;DHT22;10347;51.828;6.466;2023-03-01T03:34:22;2.70;99.90
20376;DHT22;10347;51.828;6.466;2023-03-01T03:36:53;2.70;99.90
20376;DHT22;10347;51.828;6.466;2023-03-01T03:39:25;2.70;99.90
20376;DHT22;10347;51.828;6.466;2023-03-01T03:41:51;2.60;99.90
20376;DHT22;10347;51.828;6.466;2023-03-01T03:44:16;2.60;99.90
20376;DHT22;10347;51.828;6.466;2023-03-01T03:46:42;2.60;99.90
20376;DHT22;10347;51.828;6.466;2023-03-01T03:49:07;2.60;99.90
20376;DHT22;10347;51.828;6.466;2023-03-01T03:51:33;2.60;99.90
20376;DHT22;10347;51.828;6.466;2023-03-01T03:53:58;2.50;99.90
20376;DHT22;10347;51.828;6.466;2023-03-01T03:56:24;2.50;99.90
20376;DHT22;10347;51.828;6.466;2023-03-01T03:58:52;2.50;99.90
20376;DHT22;10347;51.828;6.466;2023-03-01T04:01:17;2.50;99.90
20376;DHT22;10347;51.828;6.466;2023-03-01T04:03:43;2.50;99.90
20376;DHT22;10347;51.828;6.466;2023-03-01T04:06:12;2.40;99.90
20376;DHT22;10347;51.828;6.466;2023-03-01T04:08:38;2.40;99.90
20376;DHT22;10347;51.828;6.466;2023-03-01T04:11:05;2.40;99.90
20376;DHT22;10347;51.828;6.466;2023-03-01T04:13:49;2.40;99.90
20376;DHT22;10347;51.828;6.466;2023-03-01T04:16:15;2.30;99.90
20376;DHT22;10347;51.828;6.466;2023-03-01T04:18:41;2.30;99.90
20376;DHT22;10347;51.828;6.466;2023-03-01T04:21:07;2.30;99.90
20376;DHT22;10347;51.828;6.466;2023-03-01T04:23:32;2.20;99.90
20376;DHT22;10347;51.828;6.466;2023-03-01T04:25:59;2.20;99.90
20376;DHT22;10347;51.828;6.466;2023-03-01T04:28:39;2.20;99.90
20376;DHT22;10347;51.828;6.466;2023-03-01T04:31:15;2.20;99.90
20376;DHT22;10347;51.828;6.466;2023-03-01T04:33:48;2.20;99.90
20376;DHT22;10347;51.828;6.466;2023-03-01T04:36:16;2.10;99.90
20376;DHT22;10347;51.828;6.466;2023-03-01T04:38:43;2.10;99.90
20376;DHT22;10347;51.828;6.466;2023-03-01T04:41:13;2.10;99.90
20376;DHT22;10347;51.828;6.466;2023-03-01T04:43:38;2.10;99.90
20376;DHT22;10347;51.828;6.466;2023-03-01T04:46:07;2.10;99.90
20376;DHT22;10347;51.828;6.466;2023-03-01T04:48:35;2.10;99.90
20376;DHT22;10347;51.828;6.466;2023-03-01T04:51:01;2.10;99.90
20376;DHT22;10347;51.828;6.466;2023-03-01T04:53:28;2.10;99.90
20376;DHT22;10347;51.828;6.466;2023-03-01T04:55:55;2.10;99.90
20376;DHT22;10347;51.828;6.466;2023-03-01T04:58:26;2.00;99.90
20376;DHT22;10347;51.828;6.466;2023-03-01T05:00:52;2.00;99.90
20376;DHT22;10347;51.828;6.466;2023-03-01T05:03:19;2.00;99.90
20376;DHT22;10347;51.828;6.466;2023-03-01T05:05:46;1.90;99.90
20376;DHT22;10347;51.828;6.466;2023-03-01T05:08:13;1.90;99.90
20376;DHT22;10347;51.828;6.466;2023-03-01T05:10:53;1.90;99.90
20376;DHT22;10347;51.828;6.466;2023-03-01T05:13:20;1.90;99.90
20376;DHT22;10347;51.828;6.466;2023-03-01T05:15:48;1.90;99.90
20376;DHT22;10347;51.828;6.466;2023-03-01T05:18:14;1.80;99.90
20376;DHT22;10347;51.828;6.466;2023-03-01T05:20:40;1.90;99.90
20376;DHT22;10347;51.828;6.466;2023-03-01T05:23:06;1.80;99.90
20376;DHT22;10347;51.828;6.466;2023-03-01T05:25:33;1.80;99.90
20376;DHT22;10347;51.828;6.466;2023-03-01T05:28:00;1.80;99.90
20376;DHT22;10347;51.828;6.466;2023-03-01T05:30:30;1.80;99.90
20376;DHT22;10347;51.828;6.466;2023-03-01T05:32:56;1.80;99.90
20376;DHT22;10347;51.828;6.466;2023-03-01T05:35:21;1.80;99.90
20376;DHT22;10347;51.828;6.466;2023-03-01T05:37:48;1.80;99.90
20376;DHT22;10347;51.828;6.466;2023-03-01T05:40:17;1.80;99.90
20376;DHT22;10347;51.828;6.466;2023-03-01T05:42:52;1.80;99.90
20376;DHT22;10347;51.828;6.466;2023-03-01T05:45:18;1.80;99.90
20376;DHT22;10347;51.828;6.466;2023-03-01T05:47:45;1.90;99.90
20376;DHT22;10347;51.828;6.466;2023-03-01T05:50:25;1.90;99.90
20376;DHT22;10347;51.828;6.466;2023-03-01T05:55:51;1.90;99.90
20376;DHT22;10347;51.828;6.466;2023-03-01T05:58:19;1.90;99.90
20376;DHT22;10347;51.828;6.466;2023-03-01T06:00:46;1.90;99.90
20376;DHT22;10347;51.828;6.466;2023-03-01T06:03:13;1.90;99.90
20376;DHT22;10347;51.828;6.466;2023-03-01T06:05:40;1.80;99.90
20376;DHT22;10347;51.828;6.466;2023-03-01T06:08:06;1.80;99.90
20376;DHT22;10347;51.828;6.466;2023-03-01T06:10:32;1.80;99.90
20376;DHT22;10347;51.828;6.466;2023-03-01T06:12:58;1.80;99.90
20376;DHT22;10347;51.828;6.466;2023-03-01T06:15:25;1.80;99.90
20376;DHT22;10347;51.828;6.466;2023-03-01T06:17:51;1.70;99.90
20376;DHT22;10347;51.828;6.466;2023-03-01T06:20:21;1.70;99.90
20376;DHT22;10347;51.828;6.466;2023-03-01T06:22:48;1.70;99.90
20376;DHT22;10347;51.828;6.466;2023-03-01T06:25:16;1.70;99.90
20376;DHT22;10347;51.828;6.466;2023-03-01T06:27:43;1.70;99.90
20376;DHT22;10347;51.828;6.466;2023-03-01T06:30:10;1.70;99.90
20376;DHT22;10347;51.828;6.466;2023-03-01T06:32:37;1.70;99.90
20376;DHT22;10347;51.828;6.466;2023-03-01T06:35:03;1.70;99.90
20376;DHT22;10347;51.828;6.466;2023-03-01T06:37:29;1.60;99.90
20376;DHT22;10347;51.828;6.466;2023-03-01T06:39:55;1.60;99.90
20376;DHT22;10347;51.828;6.466;2023-03-01T06:42:20;1.60;99.90
20376;DHT22;10347;51.828;6.466;2023-03-01T06:44:46;1.60;99.90
20376;DHT22;10347;51.828;6.466;2023-03-01T06:47:12;1.60;99.90
20376;DHT22;10347;51.828;6.466;2023-03-01T06:49:37;1.50;99.90
20376;DHT22;10347;51.828;6.466;2023-03-01T06:52:03;1.50;99.90
20376;DHT22;10347;51.828;6.466;2023-03-01T06:54:28;1.40;99.90
20376;DHT22;10347;51.828;6.466;2023-03-01T06:56:54;1.40;99.90
20376;DHT22;10347;51.828;6.466;2023-03-01T06:59:20;1.30;99.90
20376;DHT22;10347;51.828;6.466;2023-03-01T07:01:45;1.40;99.90
20376;DHT22;10347;51.828;6.466;2023-03-01T07:04:12;1.40;99.90
20376;DHT22;10347;51.828;6.466;2023-03-01T07:06:38;1.40;99.90
20376;DHT22;10347;51.828;6.466;2023-03-01T07:09:04;1.40;99.90
20376;DHT22;10347;51.828;6.466;2023-03-01T07:11:29;1.50;99.90
20376;DHT22;10347;51.828;6.466;2023-03-01T07:13:55;1.40;99.90
20376;DHT22;10347;51.828;6.466;2023-03-01T07:16:21;1.50;99.90
20376;DHT22;10347;51.828;6.466;2023-03-01T07:18:46;1.50;99.90
20376;DHT22;10347;51.828;6.466;2023-03-01T07:21:13;1.50;99.90
20376;DHT22;10347;51.828;6.466;2023-03-01T07:23:40;1.50;99.90
20376;DHT22;10347;51.828;6.466;2023-03-01T07:26:06;1.50;99.90
20376;DHT22;10347;51.828;6.466;2023-03-01T07:28:31;1.50;99.90
20376;DHT22;10347;51.828;6.466;2023-03-01T07:31:05;1.50;99.90
20376;DHT22;10347;51.828;6.466;2023-03-01T07:33:31;1.60;99.90
20376;DHT22;10347;51.828;6.466;2023-03-01T07:36:02;1.50;99.90
20376;DHT22;10347;51.828;6.466;2023-03-01T07:38:28;1.60;99.90
20376;DHT22;10347;51.828;6.466;2023-03-01T07:40:57;1.60;99.90
20376;DHT22;10347;51.828;6.466;2023-03-01T07:43:24;1.60;99.90
20376;DHT22;10347;51.828;6.466;2023-03-01T07:45:49;1.60;99.90
20376;DHT22;10347;51.828;6.466;2023-03-01T07:48:15;1.60;99.90
20376;DHT22;10347;51.828;6.466;2023-03-01T07:50:40;1.70;99.90
20376;DHT22;10347;51.828;6.466;2023-03-01T07:53:06;1.70;99.90
20376;DHT22;10347;51.828;6.466;2023-03-01T07:55:31;1.70;99.90
20376;DHT22;10347;51.828;6.466;2023-03-01T07:57:57;1.70;99.90
20376;DHT22;10347;51.828;6.466;2023-03-01T08:00:23;1.80;99.90
20376;DHT22;10347;51.828;6.466;2023-03-01T08:02:48;1.80;99.90
20376;DHT22;10347;51.828;6.466;2023-03-01T08:05:14;1.80;99.90
20376;DHT22;10347;51.828;6.466;2023-03-01T08:07:39;1.80;99.90
20376;DHT22;10347;51.828;6.466;2023-03-01T08:10:05;1.80;99.90
20376;DHT22;10347;51.828;6.466;2023-03-01T08:12:31;1.90;99.90
20376;DHT22;10347;51.828;6.466;2023-03-01T08:14:56;1.90;99.90
20376;DHT22;10347;51.828;6.466;2023-03-01T08:17:22;2.00;99.90
20376;DHT22;10347;51.828;6.466;2023-03-01T08:19:48;2.00;99.90
20376;DHT22;10347;51.828;6.466;2023-03-01T08:22:13;2.00;99.90
20376;DHT22;10347;51.828;6.466;2023-03-01T08:24:39;2.00;99.90
20376;DHT22;10347;51.828;6.466;2023-03-01T08:27:04;2.10;99.90
20376;DHT22;10347;51.828;6.466;2023-03-01T08:29:31;2.10;99.90
20376;DHT22;10347;51.828;6.466;2023-03-01T08:31:57;2.20;99.90
20376;DHT22;10347;51.828;6.466;2023-03-01T08:34:23;2.20;99.90
20376;DHT22;10347;51.828;6.466;2023-03-01T08:36:48;2.20;99.90
20376;DHT22;10347;51.828;6.466;2023-03-01T08:39:16;2.30;99.90
20376;DHT22;10347;51.828;6.466;2023-03-01T08:41:43;2.30;99.90
20376;DHT22;10347;51.828;6.466;2023-03-01T08:44:10;2.40;99.90
20376;DHT22;10347;51.828;6.466;2023-03-01T08:46:39;2.40;99.90
20376;DHT22;10347;51.828;6.466;2023-03-01T08:49:14;2.50;99.90
20376;DHT22;10347;51.828;6.466;2023-03-01T08:51:41;2.50;99.90
20376;DHT22;10347;51.828;6.466;2023-03-01T08:54:10;2.60;99.90
20376;DHT22;10347;51.828;6.466;2023-03-01T08:56:36;2.60;99.90
20376;DHT22;10347;51.828;6.466;2023-03-01T08:59:02;2.70;99.90
20376;DHT22;10347;51.828;6.466;2023-03-01T09:01:27;2.70;99.90
20376;DHT22;10347;51.828;6.466;2023-03-01T09:03:53;2.80;99.90
20376;DHT22;10347;51.828;6.466;2023-03-01T09:06:19;2.90;99.90
20376;DHT22;10347;51.828;6.466;2023-03-01T09:08:46;2.90;99.90
20376;DHT22;10347;51.828;6.466;2023-03-01T09:11:15;3.00;99.90
20376;DHT22;10347;51.828;6.466;2023-03-01T09:13:42;3.10;99.90
20376;DHT22;10347;51.828;6.466;2023-03-01T09:16:08;3.10;99.90
20376;DHT22;10347;51.828;6.466;2023-03-01T09:18:35;3.20;99.90
20376;DHT22;10347;51.828;6.466;2023-03-01T09:21:06;3.20;99.90
20376;DHT22;10347;51.828;6.466;2023-03-01T09:23:40;3.30;99.90
20376;DHT22;10347;51.828;6.466;2023-03-01T09:26:11;3.40;99.90
20376;DHT22;10347;51.828;6.466;2023-03-01T09:28:37;3.50;99.90
20376;DHT22;10347;51.828;6.466;2023-03-01T09:31:04;3.60;99.90
20376;DHT22;10347;51.828;6.466;2023-03-01T09:33:31;3.70;99.90
20376;DHT22;10347;51.828;6.466;2023-03-01T09:36:03;3.70;99.90
20376;DHT22;10347;51.828;6.466;2023-03-01T09:38:29;3.80;99.90
20376;DHT22;10347;51.828;6.466;2023-03-01T09:40:54;3.90;99.90
20376;DHT22;10347;51.828;6.466;2023-03-01T09:43:52;4.00;99.90
20376;DHT22;10347;51.828;6.466;2023-03-01T09:46:21;4.00;99.90
20376;DHT22;10347;51.828;6.466;2023-03-01T09:49:01;4.10;99.90
20376;DHT22;10347;51.828;6.466;2023-03-01T09:51:35;4.20;99.90
20376;DHT22;10347;51.828;6.466;2023-03-01T09:54:02;4.30;99.90
20376;DHT22;10347;51.828;6.466;2023-03-01T09:56:39;4.40;99.90
20376;DHT22;10347;51.828;6.466;2023-03-01T09:59:23;4.40;99.90
20376;DHT22;10347;51.828;6.466;2023-03-01T10:04:49;4.60;99.90
20376;DHT22;10347;51.828;6.466;2023-03-01T10:07:43;4.70;99.90
20376;DHT22;10347;51.828;6.466;2023-03-01T10:13:04;4.90;99.90
20376;DHT22;10347;51.828;6.466;2023-03-01T10:15:38;4.90;99.90
20376;DHT22;10347;51.828;6.466;2023-03-01T10:18:19;4.90;99.90
20376;DHT22;10347;51.828;6.466;2023-03-01T10:21:12;5.00;99.90
20376;DHT22;10347;51.828;6.466;2023-03-01T10:23:38;5.10;99.90
20376;DHT22;10347;51.828;6.466;2023-03-01T10:31:19;5.30;99.90
20376;DHT22;10347;51.828;6.466;2023-03-01T10:33:45;5.40;99.90
20376;DHT22;10347;51.828;6.466;2023-03-01T10:36:13;5.40;99.90
20376;DHT22;10347;51.828;6.466;2023-03-01T10:38:56;5.50;99.90
20376;DHT22;10347;51.828;6.466;2023-03-01T10:41:24;5.50;99.90
20376;DHT22;10347;51.828;6.466;2023-03-01T10:43:58;5.60;99.90
20376;DHT22;10347;51.828;6.466;2023-03-01T10:46:27;5.70;99.90
20376;DHT22;10347;51.828;6.466;2023-03-01T10:49:20;5.70;99.90
20376;DHT22;10347;51.828;6.466;2023-03-01T10:51:49;5.90;99.90
20376;DHT22;10347;51.828;6.466;2023-03-01T10:54:20;5.90;99.90
20376;DHT22;10347;51.828;6.466;2023-03-01T10:57:10;6.10;99.90
20376;DHT22;10347;51.828;6.466;2023-03-01T10:59:39;6.00;99.90
20376;DHT22;10347;51.828;6.466;2023-03-01T11:02:37;6.00;99.90
20376;DHT22;10347;51.828;6.466;2023-03-01T11:05:19;6.10;99.90
20376;DHT22;10347;51.828;6.466;2023-03-01T11:07:50;6.20;99.90
20376;DHT22;10347;51.828;6.466;2023-03-01T11:10:22;6.20;99.90
20376;DHT22;10347;51.828;6.466;2023-03-01T11:12:47;6.20;99.90
20376;DHT22;10347;51.828;6.466;2023-03-01T11:15:27;6.30;99.90
20376;DHT22;10347;51.828;6.466;2023-03-01T11:17:54;6.30;99.90
20376;DHT22;10347;51.828;6.466;2023-03-01T11:20:32;6.40;99.90
20376;DHT22;10347;51.828;6.466;2023-03-01T11:23:03;6.40;99.90
20376;DHT22;10347;51.828;6.466;2023-03-01T11:25:37;6.40;99.90
20376;DHT22;10347;51.828;6.466;2023-03-01T11:28:06;6.50;99.90
20376;DHT22;10347;51.828;6.466;2023-03-01T11:36:15;6.60;99.90
20376;DHT22;10347;51.828;6.466;2023-03-01T11:38:42;6.70;99.90
20376;DHT22;10347;51.828;6.466;2023-03-01T11:41:17;6.80;99.90
20376;DHT22;10347;51.828;6.466;2023-03-01T11:46:51;7.00;99.90
20376;DHT22;10347;51.828;6.466;2023-03-01T11:57:53;7.10;99.90
20376;DHT22;10347;51.828;6.466;2023-03-01T12:08:57;7.20;99.90
20376;DHT22;10347;51.828;6.466;2023-03-01T12:11:35;7.30;99.90
20376;DHT22;10347;51.828;6.466;2023-03-01T12:20:03;7.30;99.90
20376;DHT22;10347;51.828;6.466;2023-03-01T12:22:52;7.40;99.90
20376;DHT22;10347;51.828;6.466;2023-03-01T12:25:58;7.40;99.90
20376;DHT22;10347;51.828;6.466;2023-03-01T12:33:45;7.60;99.90
20376;DHT22;10347;51.828;6.466;2023-03-01T12:36:35;7.60;99.90
20376;DHT22;10347;51.828;6.466;2023-03-01T12:44:46;7.70;99.90
20376;DHT22;10347;51.828;6.466;2023-03-01T12:47:25;7.80;99.90
20376;DHT22;10347;51.828;6.466;2023-03-01T12:49:55;7.90;99.90
20376;DHT22;10347;51.828;6.466;2023-03-01T12:52:42;7.80;99.90
20376;DHT22;10347;51.828;6.466;2023-03-01T12:55:35;7.80;99.90
20376;DHT22;10347;51.828;6.466;2023-03-01T13:06:21;8.00;99.90
20376;DHT22;10347;51.828;6.466;2023-03-01T13:09:22;8.00;99.90
20376;DHT22;10347;51.828;6.466;2023-03-01T13:11:49;8.00;99.90
20376;DHT22;10347;51.828;6.466;2023-03-01T13:16:49;8.10;99.90
20376;DHT22;10347;51.828;6.466;2023-03-01T13:19:17;8.10;99.90
20376;DHT22;10347;51.828;6.466;2023-03-01T13:21:46;8.10;99.90
20376;DHT22;10347;51.828;6.466;2023-03-01T13:24:35;8.20;99.90
20376;DHT22;10347;51.828;6.466;2023-03-01T13:27:11;8.20;99.90
20376;DHT22;10347;51.828;6.466;2023-03-01T13:32:28;8.20;99.90
20376;DHT22;10347;51.828;6.466;2023-03-01T13:35:01;8.20;99.90
20376;DHT22;10347;51.828;6.466;2023-03-01T13:37:31;8.30;99.90
20376;DHT22;10347;51.828;6.466;2023-03-01T13:39:59;8.30;99.90
20376;DHT22;10347;51.828;6.466;2023-03-01T13:42:50;8.30;99.90
20376;DHT22;10347;51.828;6.466;2023-03-01T13:45:36;8.30;99.90
20376;DHT22;10347;51.828;6.466;2023-03-01T13:48:15;8.40;99.90
20376;DHT22;10347;51.828;6.466;2023-03-01T13:53:45;8.50;99.90
20376;DHT22;10347;51.828;6.466;2023-03-01T13:58:54;8.60;99.00
20376;DHT22;10347;51.828;6.466;2023-03-01T14:01:23;8.60;96.60
20376;DHT22;10347;51.828;6.466;2023-03-01T14:03:55;8.60;97.00
20376;DHT22;10347;51.828;6.466;2023-03-01T14:06:23;8.60;97.20
20376;DHT22;10347;51.828;6.466;2023-03-01T14:08:52;8.60;96.70
20376;DHT22;10347;51.828;6.466;2023-03-01T14:20:10;8.80;97.90
20376;DHT22;10347;51.828;6.466;2023-03-01T14:22:36;8.90;97.60
20376;DHT22;10347;51.828;6.466;2023-03-01T14:25:20;8.90;98.10
20376;DHT22;10347;51.828;6.466;2023-03-01T14:27:55;9.00;98.30
20376;DHT22;10347;51.828;6.466;2023-03-01T14:30:25;9.00;97.90
20376;DHT22;10347;51.828;6.466;2023-03-01T14:33:00;9.00;98.10
20376;DHT22;10347;51.828;6.466;2023-03-01T14:35:29;9.10;98.20
20376;DHT22;10347;51.828;6.466;2023-03-01T14:37:55;9.00;97.80
20376;DHT22;10347;51.828;6.466;2023-03-01T14:40:28;9.10;98.00
20376;DHT22;10347;51.828;6.466;2023-03-01T14:42:58;9.10;97.30
20376;DHT22;10347;51.828;6.466;2023-03-01T14:45:25;9.20;96.50
20376;DHT22;10347;51.828;6.466;2023-03-01T14:47:52;9.10;96.60
20376;DHT22;10347;51.828;6.466;2023-03-01T14:50:23;9.10;96.30
20376;DHT22;10347;51.828;6.466;2023-03-01T14:52:52;9.10;96.00
20376;DHT22;10347;51.828;6.466;2023-03-01T14:55:21;9.20;96.10
20376;DHT22;10347;51.828;6.466;2023-03-01T14:57:50;9.20;95.50
20376;DHT22;10347;51.828;6.466;2023-03-01T15:00:20;9.20;95.90
20376;DHT22;10347;51.828;6.466;2023-03-01T15:02:48;9.30;95.60
20376;DHT22;10347;51.828;6.466;2023-03-01T15:05:15;9.30;95.20
20376;DHT22;10347;51.828;6.466;2023-03-01T15:07:44;9.30;95.90
20376;DHT22;10347;51.828;6.466;2023-03-01T15:10:23;9.30;95.60
20376;DHT22;10347;51.828;6.466;2023-03-01T15:12:49;9.40;94.10
20376;DHT22;10347;51.828;6.466;2023-03-01T15:17:56;9.50;95.00
20376;DHT22;10347;51.828;6.466;2023-03-01T15:20:25;9.50;95.40
20376;DHT22;10347;51.828;6.466;2023-03-01T15:22:53;9.50;94.60
20376;DHT22;10347;51.828;6.466;2023-03-01T15:25:27;9.50;94.50
20376;DHT22;10347;51.828;6.466;2023-03-01T15:27:54;9.50;94.10
20376;DHT22;10347;51.828;6.466;2023-03-01T15:30:26;9.50;93.90
20376;DHT22;10347;51.828;6.466;2023-03-01T15:35:51;9.50;92.60
20376;DHT22;10347;51.828;6.466;2023-03-01T15:38:53;9.50;92.60
20376;DHT22;10347;51.828;6.466;2023-03-01T15:41:31;9.50;92.40
20376;DHT22;10347;51.828;6.466;2023-03-01T15:44:14;9.50;93.70
20376;DHT22;10347;51.828;6.466;2023-03-01T15:46:40;9.50;92.70
20376;DHT22;10347;51.828;6.466;2023-03-01T15:49:45;9.50;93.30
20376;DHT22;10347;51.828;6.466;2023-03-01T15:52:22;9.50;93.00
20376;DHT22;10347;51.828;6.466;2023-03-01T15:54:55;9.50;93.00
20376;DHT22;10347;51.828;6.466;2023-03-01T15:57:21;9.60;93.30
20376;DHT22;10347;51.828;6.466;2023-03-01T15:59:46;9.60;93.00
20376;DHT22;10347;51.828;6.466;2023-03-01T16:02:12;9.60;93.10
20376;DHT22;10347;51.828;6.466;2023-03-01T16:04:39;9.60;93.20
20376;DHT22;10347;51.828;6.466;2023-03-01T16:07:05;9.60;93.30
20376;DHT22;10347;51.828;6.466;2023-03-01T16:09:31;9.70;93.20
20376;DHT22;10347;51.828;6.466;2023-03-01T16:11:57;9.70;92.70
20376;DHT22;10347;51.828;6.466;2023-03-01T16:14:35;9.60;92.00
20376;DHT22;10347;51.828;6.466;2023-03-01T16:17:00;9.60;91.10
20376;DHT22;10347;51.828;6.466;2023-03-01T16:19:26;9.60;91.70
20376;DHT22;10347;51.828;6.466;2023-03-01T16:21:51;9.50;91.60
20376;DHT22;10347;51.828;6.466;2023-03-01T16:24:17;9.50;91.30
20376;DHT22;10347;51.828;6.466;2023-03-01T16:26:42;9.40;91.70
20376;DHT22;10347;51.828;6.466;2023-03-01T16:29:08;9.40;91.50
20376;DHT22;10347;51.828;6.466;2023-03-01T16:31:33;9.40;91.00
20376;DHT22;10347;51.828;6.466;2023-03-01T16:33:59;9.30;91.40
20376;DHT22;10347;51.828;6.466;2023-03-01T16:36:26;9.40;91.00
20376;DHT22;10347;51.828;6.466;2023-03-01T16:38:53;9.30;90.60
20376;DHT22;10347;51.828;6.466;2023-03-01T16:41:21;9.30;91.50
20376;DHT22;10347;51.828;6.466;2023-03-01T16:43:47;9.30;91.60
20376;DHT22;10347;51.828;6.466;2023-03-01T16:46:15;9.30;91.40
20376;DHT22;10347;51.828;6.466;2023-03-01T16:48:41;9.30;91.60
20376;DHT22;10347;51.828;6.466;2023-03-01T16:51:07;9.30;91.60
20376;DHT22;10347;51.828;6.466;2023-03-01T16:53:34;9.30;91.50
20376;DHT22;10347;51.828;6.466;2023-03-01T16:56:06;9.30;92.10
20376;DHT22;10347;51.828;6.466;2023-03-01T16:58:33;9.30;92.00
20376;DHT22;10347;51.828;6.466;2023-03-01T17:01:08;9.30;92.00
20376;DHT22;10347;51.828;6.466;2023-03-01T17:03:34;9.20;91.60
20376;DHT22;10347;51.828;6.466;2023-03-01T17:06:12;9.20;92.20
20376;DHT22;10347;51.828;6.466;2023-03-01T17:08:38;9.10;91.60
20376;DHT22;10347;51.828;6.466;2023-03-01T17:11:10;9.10;92.40
20376;DHT22;10347;51.828;6.466;2023-03-01T17:13:37;9.10;92.20
20376;DHT22;10347;51.828;6.466;2023-03-01T17:16:07;9.00;92.30
20376;DHT22;10347;51.828;6.466;2023-03-01T17:18:33;9.00;92.50
20376;DHT22;10347;51.828;6.466;2023-03-01T17:20:59;9.00;92.70
20376;DHT22;10347;51.828;6.466;2023-03-01T17:23:26;9.00;92.80
20376;DHT22;10347;51.828;6.466;2023-03-01T17:26:05;9.00;92.70
20376;DHT22;10347;51.828;6.466;2023-03-01T17:28:32;9.00;93.00
20376;DHT22;10347;51.828;6.466;2023-03-01T17:31:03;8.90;92.90
20376;DHT22;10347;51.828;6.466;2023-03-01T17:33:29;8.90;92.70
20376;DHT22;10347;51.828;6.466;2023-03-01T17:35:56;8.90;93.00